Terminal Aerodrome Forecast
Issued by NWS Twin Cities, MN

Home | Current Version | Previous Version | Text Only | Print | Product List | Glossary Off
Versions: 1 2 3 4 5 6 7 8 9 10 11 12 13 14 15 16 17 18 19 20 21

000
FTUS43 KMPX 100500
TAFSTC
TAF
KSTC 100520Z 1006/1106 VRB02KT P6SM SKC
     FM101400 17007KT P6SM FEW040
     FM101900 18010KT P6SM SCT045 BKN080
     FM110100 17007KT P6SM VCSH BKN050 OVC080 PROB30 1104/1106 5SM
      TSRA OVC035CB=

USA.gov is the U.S. government's official web portal to all federal, state and local government web resources and services.